sensor_id;sensor_type;location;lat;lon;timestamp;temperature;humidity
33863;DHT22;20158;51.436;-2.742;2023-11-21T00:02:21;13.30;68.40
33863;DHT22;20158;51.436;-2.742;2023-11-21T00:04:48;13.40;68.70
33863;DHT22;20158;51.436;-2.742;2023-11-21T00:07:15;13.40;68.70
33863;DHT22;20158;51.436;-2.742;2023-11-21T00:09:44;13.30;68.60
33863;DHT22;20158;51.436;-2.742;2023-11-21T00:12:11;13.30;68.60
33863;DHT22;20158;51.436;-2.742;2023-11-21T00:14:37;13.40;68.80
33863;DHT22;20158;51.436;-2.742;2023-11-21T00:17:05;13.30;68.70
33863;DHT22;20158;51.436;-2.742;2023-11-21T00:19:32;13.30;68.80
33863;DHT22;20158;51.436;-2.742;2023-11-21T00:21:59;13.30;68.80
33863;DHT22;20158;51.436;-2.742;2023-11-21T00:24:25;13.30;68.90
33863;DHT22;20158;51.436;-2.742;2023-11-21T00:26:52;13.30;69.00
33863;DHT22;20158;51.436;-2.742;2023-11-21T00:29:22;13.30;69.00
33863;DHT22;20158;51.436;-2.742;2023-11-21T00:31:49;13.20;68.90
33863;DHT22;20158;51.436;-2.742;2023-11-21T00:34:15;13.20;68.90
33863;DHT22;20158;51.436;-2.742;2023-11-21T00:36:41;13.20;69.00
33863;DHT22;20158;51.436;-2.742;2023-11-21T00:39:08;13.20;69.10
33863;DHT22;20158;51.436;-2.742;2023-11-21T00:41:34;13.20;69.20
33863;DHT22;20158;51.436;-2.742;2023-11-21T00:44:02;13.20;69.20
33863;DHT22;20158;51.436;-2.742;2023-11-21T00:46:29;13.20;69.20
33863;DHT22;20158;51.436;-2.742;2023-11-21T00:48:56;13.20;69.30
33863;DHT22;20158;51.436;-2.742;2023-11-21T00:51:22;13.20;69.40
33863;DHT22;20158;51.436;-2.742;2023-11-21T00:53:49;13.20;69.40
33863;DHT22;20158;51.436;-2.742;2023-11-21T00:56:16;13.20;69.40
33863;DHT22;20158;51.436;-2.742;2023-11-21T00:58:42;13.20;69.40
33863;DHT22;20158;51.436;-2.742;2023-11-21T01:01:16;13.20;69.50
33863;DHT22;20158;51.436;-2.742;2023-11-21T01:03:42;13.20;69.50
33863;DHT22;20158;51.436;-2.742;2023-11-21T01:06:09;13.20;69.60
33863;DHT22;20158;51.436;-2.742;2023-11-21T01:08:35;13.20;69.60
33863;DHT22;20158;51.436;-2.742;2023-11-21T01:11:02;13.20;69.60
33863;DHT22;20158;51.436;-2.742;2023-11-21T01:13:29;13.20;69.70
33863;DHT22;20158;51.436;-2.742;2023-11-21T01:15:56;13.20;69.70
33863;DHT22;20158;51.436;-2.742;2023-11-21T01:18:22;13.10;69.60
33863;DHT22;20158;51.436;-2.742;2023-11-21T01:20:52;13.10;69.70
33863;DHT22;20158;51.436;-2.742;2023-11-21T01:23:20;13.10;69.70
33863;DHT22;20158;51.436;-2.742;2023-11-21T01:25:46;13.10;69.80
33863;DHT22;20158;51.436;-2.742;2023-11-21T01:28:12;13.10;69.80
33863;DHT22;20158;51.436;-2.742;2023-11-21T01:30:38;13.10;69.90
33863;DHT22;20158;51.436;-2.742;2023-11-21T01:33:05;13.10;70.00
33863;DHT22;20158;51.436;-2.742;2023-11-21T01:35:31;13.10;70.00
33863;DHT22;20158;51.436;-2.742;2023-11-21T01:37:57;13.10;70.10
33863;DHT22;20158;51.436;-2.742;2023-11-21T01:40:23;13.00;70.00
33863;DHT22;20158;51.436;-2.742;2023-11-21T01:42:50;13.10;70.20
33863;DHT22;20158;51.436;-2.742;2023-11-21T01:45:16;13.00;70.10
33863;DHT22;20158;51.436;-2.742;2023-11-21T01:47:42;13.00;70.10
33863;DHT22;20158;51.436;-2.742;2023-11-21T01:50:14;13.10;70.40
33863;DHT22;20158;51.436;-2.742;2023-11-21T01:52:44;13.00;70.30
33863;DHT22;20158;51.436;-2.742;2023-11-21T01:55:10;13.00;70.30
33863;DHT22;20158;51.436;-2.742;2023-11-21T01:57:38;13.00;70.30
33863;DHT22;20158;51.436;-2.742;2023-11-21T02:00:04;13.00;70.30
33863;DHT22;20158;51.436;-2.742;2023-11-21T02:02:44;13.00;70.40
33863;DHT22;20158;51.436;-2.742;2023-11-21T02:05:11;13.10;70.60
33863;DHT22;20158;51.436;-2.742;2023-11-21T02:07:41;13.00;70.50
33863;DHT22;20158;51.436;-2.742;2023-11-21T02:10:09;13.00;71.00
33863;DHT22;20158;51.436;-2.742;2023-11-21T02:12:36;13.00;70.50
33863;DHT22;20158;51.436;-2.742;2023-11-21T02:15:05;13.00;70.60
33863;DHT22;20158;51.436;-2.742;2023-11-21T02:17:36;13.00;70.60
33863;DHT22;20158;51.436;-2.742;2023-11-21T02:20:02;13.00;70.70
33863;DHT22;20158;51.436;-2.742;2023-11-21T02:22:31;13.00;70.60
33863;DHT22;20158;51.436;-2.742;2023-11-21T02:24:58;13.00;70.70
33863;DHT22;20158;51.436;-2.742;2023-11-21T02:27:24;13.00;70.70
33863;DHT22;20158;51.436;-2.742;2023-11-21T02:29:50;13.00;70.80
33863;DHT22;20158;51.436;-2.742;2023-11-21T02:32:16;13.00;70.80
33863;DHT22;20158;51.436;-2.742;2023-11-21T02:34:48;13.00;70.80
33863;DHT22;20158;51.436;-2.742;2023-11-21T02:37:16;13.00;70.90
33863;DHT22;20158;51.436;-2.742;2023-11-21T02:39:42;13.00;71.00
33863;DHT22;20158;51.436;-2.742;2023-11-21T02:42:08;13.00;71.00
33863;DHT22;20158;51.436;-2.742;2023-11-21T02:44:34;13.00;71.00
33863;DHT22;20158;51.436;-2.742;2023-11-21T02:47:01;13.00;71.00
33863;DHT22;20158;51.436;-2.742;2023-11-21T02:49:29;13.00;71.10
33863;DHT22;20158;51.436;-2.742;2023-11-21T02:51:55;13.00;71.10
33863;DHT22;20158;51.436;-2.742;2023-11-21T02:54:21;13.00;71.20
33863;DHT22;20158;51.436;-2.742;2023-11-21T02:56:51;13.00;71.20
33863;DHT22;20158;51.436;-2.742;2023-11-21T02:59:18;13.00;71.20
33863;DHT22;20158;51.436;-2.742;2023-11-21T03:01:46;13.00;71.20
33863;DHT22;20158;51.436;-2.742;2023-11-21T03:04:12;13.00;71.30
33863;DHT22;20158;51.436;-2.742;2023-11-21T03:06:44;13.00;71.30
33863;DHT22;20158;51.436;-2.742;2023-11-21T03:09:11;13.00;71.30
33863;DHT22;20158;51.436;-2.742;2023-11-21T03:11:40;12.90;71.20
33863;DHT22;20158;51.436;-2.742;2023-11-21T03:14:06;13.00;71.40
33863;DHT22;20158;51.436;-2.742;2023-11-21T03:16:33;12.90;71.30
33863;DHT22;20158;51.436;-2.742;2023-11-21T03:19:00;12.90;71.30
33863;DHT22;20158;51.436;-2.742;2023-11-21T03:21:27;12.90;71.40
33863;DHT22;20158;51.436;-2.742;2023-11-21T03:23:55;12.90;71.40
33863;DHT22;20158;51.436;-2.742;2023-11-21T03:26:21;12.90;71.50
33863;DHT22;20158;51.436;-2.742;2023-11-21T03:28:47;12.90;71.50
33863;DHT22;20158;51.436;-2.742;2023-11-21T03:31:13;12.90;71.50
33863;DHT22;20158;51.436;-2.742;2023-11-21T03:33:42;12.90;71.60
33863;DHT22;20158;51.436;-2.742;2023-11-21T03:36:08;12.90;71.60
33863;DHT22;20158;51.436;-2.742;2023-11-21T03:38:36;12.90;71.60
33863;DHT22;20158;51.436;-2.742;2023-11-21T03:41:03;12.90;71.60
33863;DHT22;20158;51.436;-2.742;2023-11-21T03:43:29;12.90;71.70
33863;DHT22;20158;51.436;-2.742;2023-11-21T03:45:56;12.90;71.70
33863;DHT22;20158;51.436;-2.742;2023-11-21T03:48:22;12.90;71.70
33863;DHT22;20158;51.436;-2.742;2023-11-21T03:50:48;12.90;71.70
33863;DHT22;20158;51.436;-2.742;2023-11-21T03:53:15;12.90;71.70
33863;DHT22;20158;51.436;-2.742;2023-11-21T03:55:43;12.90;71.80
33863;DHT22;20158;51.436;-2.742;2023-11-21T03:58:11;12.90;71.80
33863;DHT22;20158;51.436;-2.742;2023-11-21T04:00:37;12.90;71.80
33863;DHT22;20158;51.436;-2.742;2023-11-21T04:03:04;12.90;71.80
33863;DHT22;20158;51.436;-2.742;2023-11-21T04:05:30;12.90;71.90
33863;DHT22;20158;51.436;-2.742;2023-11-21T04:07:57;12.90;71.90
33863;DHT22;20158;51.436;-2.742;2023-11-21T04:10:24;12.90;71.80
33863;DHT22;20158;51.436;-2.742;2023-11-21T04:12:50;12.90;71.90
33863;DHT22;20158;51.436;-2.742;2023-11-21T04:15:20;12.90;71.90
33863;DHT22;20158;51.436;-2.742;2023-11-21T04:17:46;12.90;71.80
33863;DHT22;20158;51.436;-2.742;2023-11-21T04:20:13;12.90;71.80
33863;DHT22;20158;51.436;-2.742;2023-11-21T04:22:40;12.90;71.80
33863;DHT22;20158;51.436;-2.742;2023-11-21T04:25:11;12.90;71.80
33863;DHT22;20158;51.436;-2.742;2023-11-21T04:27:39;12.90;71.80
33863;DHT22;20158;51.436;-2.742;2023-11-21T04:30:06;12.90;71.80
33863;DHT22;20158;51.436;-2.742;2023-11-21T04:32:33;12.90;71.70
33863;DHT22;20158;51.436;-2.742;2023-11-21T04:34:59;12.90;71.70
33863;DHT22;20158;51.436;-2.742;2023-11-21T04:37:26;12.90;71.70
33863;DHT22;20158;51.436;-2.742;2023-11-21T04:39:52;12.90;71.60
33863;DHT22;20158;51.436;-2.742;2023-11-21T04:42:18;12.90;71.60
33863;DHT22;20158;51.436;-2.742;2023-11-21T04:44:45;12.90;71.50
33863;DHT22;20158;51.436;-2.742;2023-11-21T04:47:11;12.90;71.50
33863;DHT22;20158;51.436;-2.742;2023-11-21T04:49:41;12.80;71.20
33863;DHT22;20158;51.436;-2.742;2023-11-21T04:52:09;12.90;71.40
33863;DHT22;20158;51.436;-2.742;2023-11-21T04:54:36;12.80;71.10
33863;DHT22;20158;51.436;-2.742;2023-11-21T04:57:02;12.80;71.10
33863;DHT22;20158;51.436;-2.742;2023-11-21T04:59:31;12.80;71.00
33863;DHT22;20158;51.436;-2.742;2023-11-21T05:01:57;12.80;71.00
33863;DHT22;20158;51.436;-2.742;2023-11-21T05:04:24;12.80;70.90
33863;DHT22;20158;51.436;-2.742;2023-11-21T05:06:54;12.80;70.90
33863;DHT22;20158;51.436;-2.742;2023-11-21T05:09:20;12.80;70.80
33863;DHT22;20158;51.436;-2.742;2023-11-21T05:11:49;12.80;70.80
33863;DHT22;20158;51.436;-2.742;2023-11-21T05:14:16;12.70;70.60
33863;DHT22;20158;51.436;-2.742;2023-11-21T05:16:45;12.70;70.60
33863;DHT22;20158;51.436;-2.742;2023-11-21T05:19:11;12.70;70.50
33863;DHT22;20158;51.436;-2.742;2023-11-21T05:21:42;12.70;70.50
33863;DHT22;20158;51.436;-2.742;2023-11-21T05:24:08;12.70;70.50
33863;DHT22;20158;51.436;-2.742;2023-11-21T05:26:39;12.70;70.40
33863;DHT22;20158;51.436;-2.742;2023-11-21T05:29:06;12.70;70.40
33863;DHT22;20158;51.436;-2.742;2023-11-21T05:31:33;12.70;70.40
33863;DHT22;20158;51.436;-2.742;2023-11-21T05:33:59;12.70;70.40
33863;DHT22;20158;51.436;-2.742;2023-11-21T05:36:26;12.70;70.30
33863;DHT22;20158;51.436;-2.742;2023-11-21T05:38:52;12.70;70.30
33863;DHT22;20158;51.436;-2.742;2023-11-21T05:41:19;12.70;70.30
33863;DHT22;20158;51.436;-2.742;2023-11-21T05:43:46;12.70;70.20
33863;DHT22;20158;51.436;-2.742;2023-11-21T05:46:13;12.70;70.10
33863;DHT22;20158;51.436;-2.742;2023-11-21T05:48:39;12.70;70.10
33863;DHT22;20158;51.436;-2.742;2023-11-21T05:51:06;12.60;69.90
33863;DHT22;20158;51.436;-2.742;2023-11-21T05:53:33;12.70;70.10
33863;DHT22;20158;51.436;-2.742;2023-11-21T05:55:59;12.70;70.00
33863;DHT22;20158;51.436;-2.742;2023-11-21T05:58:25;12.60;69.80
33863;DHT22;20158;51.436;-2.742;2023-11-21T06:00:51;12.60;69.70
33863;DHT22;20158;51.436;-2.742;2023-11-21T06:03:17;12.70;69.80
33863;DHT22;20158;51.436;-2.742;2023-11-21T06:05:43;12.70;69.80
33863;DHT22;20158;51.436;-2.742;2023-11-21T06:08:09;12.60;69.50
33863;DHT22;20158;51.436;-2.742;2023-11-21T06:10:36;12.60;69.40
33863;DHT22;20158;51.436;-2.742;2023-11-21T06:13:02;12.60;69.40
33863;DHT22;20158;51.436;-2.742;2023-11-21T06:15:29;12.60;69.30
33863;DHT22;20158;51.436;-2.742;2023-11-21T06:17:56;12.60;69.20
33863;DHT22;20158;51.436;-2.742;2023-11-21T06:20:22;12.60;69.20
33863;DHT22;20158;51.436;-2.742;2023-11-21T06:22:50;12.50;68.90
33863;DHT22;20158;51.436;-2.742;2023-11-21T06:25:16;12.50;68.80
33863;DHT22;20158;51.436;-2.742;2023-11-21T06:27:45;12.50;68.80
33863;DHT22;20158;51.436;-2.742;2023-11-21T06:30:13;12.50;69.20
33863;DHT22;20158;51.436;-2.742;2023-11-21T06:32:39;12.50;68.60
33863;DHT22;20158;51.436;-2.742;2023-11-21T06:35:06;12.50;68.60
33863;DHT22;20158;51.436;-2.742;2023-11-21T06:37:33;12.50;68.50
33863;DHT22;20158;51.436;-2.742;2023-11-21T06:40:00;12.50;68.40
33863;DHT22;20158;51.436;-2.742;2023-11-21T06:42:27;12.50;68.50
33863;DHT22;20158;51.436;-2.742;2023-11-21T06:44:53;12.50;68.60
33863;DHT22;20158;51.436;-2.742;2023-11-21T06:47:23;12.50;68.60
33863;DHT22;20158;51.436;-2.742;2023-11-21T06:49:52;12.50;68.60
33863;DHT22;20158;51.436;-2.742;2023-11-21T06:52:19;12.50;68.50
33863;DHT22;20158;51.436;-2.742;2023-11-21T06:54:47;12.50;68.40
33863;DHT22;20158;51.436;-2.742;2023-11-21T06:57:13;12.40;68.20
33863;DHT22;20158;51.436;-2.742;2023-11-21T06:59:39;12.40;68.20
33863;DHT22;20158;51.436;-2.742;2023-11-21T07:02:06;12.40;68.10
33863;DHT22;20158;51.436;-2.742;2023-11-21T07:04:38;12.40;68.10
33863;DHT22;20158;51.436;-2.742;2023-11-21T07:07:04;12.40;68.10
33863;DHT22;20158;51.436;-2.742;2023-11-21T07:09:33;12.40;68.00
33863;DHT22;20158;51.436;-2.742;2023-11-21T07:11:58;12.40;68.00
33863;DHT22;20158;51.436;-2.742;2023-11-21T07:14:25;12.40;68.00
33863;DHT22;20158;51.436;-2.742;2023-11-21T07:16:51;12.40;68.00
33863;DHT22;20158;51.436;-2.742;2023-11-21T07:19:21;12.30;67.70
33863;DHT22;20158;51.436;-2.742;2023-11-21T07:21:47;12.40;67.90
33863;DHT22;20158;51.436;-2.742;2023-11-21T07:24:17;12.40;67.80
33863;DHT22;20158;51.436;-2.742;2023-11-21T07:26:43;12.40;68.30
33863;DHT22;20158;51.436;-2.742;2023-11-21T07:29:09;12.30;67.50
33863;DHT22;20158;51.436;-2.742;2023-11-21T07:31:35;12.30;67.50
33863;DHT22;20158;51.436;-2.742;2023-11-21T07:34:01;12.30;67.50
33863;DHT22;20158;51.436;-2.742;2023-11-21T07:36:27;12.40;67.60
33863;DHT22;20158;51.436;-2.742;2023-11-21T07:38:53;12.40;67.60
33863;DHT22;20158;51.436;-2.742;2023-11-21T07:41:19;12.30;67.30
33863;DHT22;20158;51.436;-2.742;2023-11-21T07:43:46;12.30;67.30
33863;DHT22;20158;51.436;-2.742;2023-11-21T07:46:13;12.30;67.20
33863;DHT22;20158;51.436;-2.742;2023-11-21T07:48:40;12.30;67.20
33863;DHT22;20158;51.436;-2.742;2023-11-21T07:51:08;12.30;67.20
33863;DHT22;20158;51.436;-2.742;2023-11-21T07:53:34;12.30;67.20
33863;DHT22;20158;51.436;-2.742;2023-11-21T07:56:05;12.30;67.10
33863;DHT22;20158;51.436;-2.742;2023-11-21T07:58:32;12.30;67.10
33863;DHT22;20158;51.436;-2.742;2023-11-21T08:01:02;12.30;67.10
33863;DHT22;20158;51.436;-2.742;2023-11-21T08:03:28;12.30;67.10
33863;DHT22;20158;51.436;-2.742;2023-11-21T08:05:58;12.30;67.00
33863;DHT22;20158;51.436;-2.742;2023-11-21T08:08:24;12.30;67.00
33863;DHT22;20158;51.436;-2.742;2023-11-21T08:10:51;12.30;66.90
33863;DHT22;20158;51.436;-2.742;2023-11-21T08:13:27;12.30;66.90
33863;DHT22;20158;51.436;-2.742;2023-11-21T08:15:54;12.40;67.00
33863;DHT22;20158;51.436;-2.742;2023-11-21T08:18:21;12.40;67.00
33863;DHT22;20158;51.436;-2.742;2023-11-21T08:20:48;12.40;66.90
33863;DHT22;20158;51.436;-2.742;2023-11-21T08:23:15;12.30;66.70
33863;DHT22;20158;51.436;-2.742;2023-11-21T08:25:45;12.40;66.80
33863;DHT22;20158;51.436;-2.742;2023-11-21T08:28:12;12.40;66.80
33863;DHT22;20158;51.436;-2.742;2023-11-21T08:30:40;12.40;66.70
33863;DHT22;20158;51.436;-2.742;2023-11-21T08:33:07;12.40;66.70
33863;DHT22;20158;51.436;-2.742;2023-11-21T08:35:34;12.40;66.70
33863;DHT22;20158;51.436;-2.742;2023-11-21T08:38:00;12.40;66.60
33863;DHT22;20158;51.436;-2.742;2023-11-21T08:40:27;12.40;66.60
33863;DHT22;20158;51.436;-2.742;2023-11-21T08:43:00;12.40;66.60
33863;DHT22;20158;51.436;-2.742;2023-11-21T08:45:26;12.50;66.60
33863;DHT22;20158;51.436;-2.742;2023-11-21T08:47:53;12.50;66.60
33863;DHT22;20158;51.436;-2.742;2023-11-21T08:50:20;12.50;66.60
33863;DHT22;20158;51.436;-2.742;2023-11-21T08:52:47;12.50;66.50
33863;DHT22;20158;51.436;-2.742;2023-11-21T08:55:14;12.50;66.40
33863;DHT22;20158;51.436;-2.742;2023-11-21T08:57:41;12.60;66.60
33863;DHT22;20158;51.436;-2.742;2023-11-21T09:00:10;12.60;66.60
33863;DHT22;20158;51.436;-2.742;2023-11-21T09:02:44;12.60;66.50
33863;DHT22;20158;51.436;-2.742;2023-11-21T09:05:12;12.60;66.40
33863;DHT22;20158;51.436;-2.742;2023-11-21T09:07:40;12.70;66.50
33863;DHT22;20158;51.436;-2.742;2023-11-21T09:10:08;12.70;66.50
33863;DHT22;20158;51.436;-2.742;2023-11-21T09:12:36;12.70;66.40
33863;DHT22;20158;51.436;-2.742;2023-11-21T09:15:07;12.70;66.30
33863;DHT22;20158;51.436;-2.742;2023-11-21T09:17:38;12.80;66.50
33863;DHT22;20158;51.436;-2.742;2023-11-21T09:20:05;12.80;66.40
33863;DHT22;20158;51.436;-2.742;2023-11-21T09:22:32;12.80;66.20
33863;DHT22;20158;51.436;-2.742;2023-11-21T09:24:59;12.80;66.20
33863;DHT22;20158;51.436;-2.742;2023-11-21T09:27:25;12.90;66.40
33863;DHT22;20158;51.436;-2.742;2023-11-21T09:29:52;12.90;66.30
33863;DHT22;20158;51.436;-2.742;2023-11-21T09:32:20;12.90;66.20
33863;DHT22;20158;51.436;-2.742;2023-11-21T09:34:48;13.00;66.30
33863;DHT22;20158;51.436;-2.742;2023-11-21T09:37:16;13.00;66.20
33863;DHT22;20158;51.436;-2.742;2023-11-21T09:39:42;13.00;66.30
33863;DHT22;20158;51.436;-2.742;2023-11-21T09:42:19;13.10;66.90
33863;DHT22;20158;51.436;-2.742;2023-11-21T09:47:32;13.20;67.80
33863;DHT22;20158;51.436;-2.742;2023-11-21T09:50:02;13.30;68.10
33863;DHT22;20158;51.436;-2.742;2023-11-21T09:52:28;13.40;68.50
33863;DHT22;20158;51.436;-2.742;2023-11-21T09:54:55;13.50;68.80
33863;DHT22;20158;51.436;-2.742;2023-11-21T09:57:25;13.60;69.10
33863;DHT22;20158;51.436;-2.742;2023-11-21T09:59:52;13.70;69.40
33863;DHT22;20158;51.436;-2.742;2023-11-21T10:02:26;13.80;69.60
33863;DHT22;20158;51.436;-2.742;2023-11-21T10:04:56;13.80;69.60
33863;DHT22;20158;51.436;-2.742;2023-11-21T10:07:23;13.90;69.80
33863;DHT22;20158;51.436;-2.742;2023-11-21T10:09:51;14.00;70.00
33863;DHT22;20158;51.436;-2.742;2023-11-21T10:12:19;14.10;70.20
33863;DHT22;20158;51.436;-2.742;2023-11-21T10:14:49;14.20;70.40
33863;DHT22;20158;51.436;-2.742;2023-11-21T10:17:25;14.20;70.40
33863;DHT22;20158;51.436;-2.742;2023-11-21T10:19:57;14.30;70.50
33863;DHT22;20158;51.436;-2.742;2023-11-21T10:22:24;14.40;70.60
33863;DHT22;20158;51.436;-2.742;2023-11-21T10:24:51;14.40;70.50
33863;DHT22;20158;51.436;-2.742;2023-11-21T10:27:20;14.40;70.50
33863;DHT22;20158;51.436;-2.742;2023-11-21T10:29:47;14.60;70.90
33863;DHT22;20158;51.436;-2.742;2023-11-21T10:32:13;14.60;70.90
33863;DHT22;20158;51.436;-2.742;2023-11-21T10:34:39;14.70;71.00
33863;DHT22;20158;51.436;-2.742;2023-11-21T10:37:13;14.80;71.00
33863;DHT22;20158;51.436;-2.742;2023-11-21T10:39:39;14.90;71.60
33863;DHT22;20158;51.436;-2.742;2023-11-21T10:42:08;15.00;71.00
33863;DHT22;20158;51.436;-2.742;2023-11-21T10:44:35;15.10;71.60
33863;DHT22;20158;51.436;-2.742;2023-11-21T10:47:01;15.20;71.10
33863;DHT22;20158;51.436;-2.742;2023-11-21T10:49:28;15.30;71.00
33863;DHT22;20158;51.436;-2.742;2023-11-21T10:51:55;15.30;70.70
33863;DHT22;20158;51.436;-2.742;2023-11-21T10:54:23;15.40;70.60
33863;DHT22;20158;51.436;-2.742;2023-11-21T10:57:00;15.40;70.30
33863;DHT22;20158;51.436;-2.742;2023-11-21T10:59:30;15.50;70.20
33863;DHT22;20158;51.436;-2.742;2023-11-21T11:01:58;15.60;70.10
33863;DHT22;20158;51.436;-2.742;2023-11-21T11:04:27;15.60;70.00
33863;DHT22;20158;51.436;-2.742;2023-11-21T11:07:02;15.70;69.90
33863;DHT22;20158;51.436;-2.742;2023-11-21T11:09:33;15.70;69.60
33863;DHT22;20158;51.436;-2.742;2023-11-21T11:12:02;15.80;69.70
33863;DHT22;20158;51.436;-2.742;2023-11-21T11:14:31;15.80;69.50
33863;DHT22;20158;51.436;-2.742;2023-11-21T11:16:58;15.80;69.30
33863;DHT22;20158;51.436;-2.742;2023-11-21T11:19:27;15.80;69.10
33863;DHT22;20158;51.436;-2.742;2023-11-21T11:24:47;15.90;69.00
33863;DHT22;20158;51.436;-2.742;2023-11-21T11:30:16;15.90;68.60
33863;DHT22;20158;51.436;-2.742;2023-11-21T11:35:57;16.00;68.40
33863;DHT22;20158;51.436;-2.742;2023-11-21T11:38:33;16.10;68.30
33863;DHT22;20158;51.436;-2.742;2023-11-21T11:41:03;16.20;68.20
33863;DHT22;20158;51.436;-2.742;2023-11-21T11:43:33;16.30;68.20
33863;DHT22;20158;51.436;-2.742;2023-11-21T11:46:03;16.30;68.50
33863;DHT22;20158;51.436;-2.742;2023-11-21T11:48:29;16.40;67.80
33863;DHT22;20158;51.436;-2.742;2023-11-21T11:51:05;16.40;67.60
33863;DHT22;20158;51.436;-2.742;2023-11-21T11:53:37;16.50;67.50
33863;DHT22;20158;51.436;-2.742;2023-11-21T11:58:55;16.60;67.00
33863;DHT22;20158;51.436;-2.742;2023-11-21T12:01:24;16.60;66.90
33863;DHT22;20158;51.436;-2.742;2023-11-21T12:07:05;16.70;66.50
33863;DHT22;20158;51.436;-2.742;2023-11-21T12:09:32;16.70;66.50
33863;DHT22;20158;51.436;-2.742;2023-11-21T12:11:59;16.70;66.30
33863;DHT22;20158;51.436;-2.742;2023-11-21T12:14:28;16.80;66.30
33863;DHT22;20158;51.436;-2.742;2023-11-21T12:16:58;16.80;66.10
33863;DHT22;20158;51.436;-2.742;2023-11-21T12:19:25;16.80;66.00
33863;DHT22;20158;51.436;-2.742;2023-11-21T12:21:52;16.90;66.10
33863;DHT22;20158;51.436;-2.742;2023-11-21T12:24:19;17.00;66.10
33863;DHT22;20158;51.436;-2.742;2023-11-21T12:26:45;17.00;65.90
33863;DHT22;20158;51.436;-2.742;2023-11-21T12:29:15;17.10;66.00
33863;DHT22;20158;51.436;-2.742;2023-11-21T12:31:43;17.10;65.90
33863;DHT22;20158;51.436;-2.742;2023-11-21T12:34:13;17.10;65.70
33863;DHT22;20158;51.436;-2.742;2023-11-21T12:36:39;17.20;65.80
33863;DHT22;20158;51.436;-2.742;2023-11-21T12:39:06;17.20;65.70
33863;DHT22;20158;51.436;-2.742;2023-11-21T12:41:35;17.20;65.50
33863;DHT22;20158;51.436;-2.742;2023-11-21T12:44:01;17.30;65.60
33863;DHT22;20158;51.436;-2.742;2023-11-21T12:46:27;17.30;65.50
33863;DHT22;20158;51.436;-2.742;2023-11-21T12:48:59;17.30;65.50
33863;DHT22;20158;51.436;-2.742;2023-11-21T12:51:26;17.30;65.40
33863;DHT22;20158;51.436;-2.742;2023-11-21T12:53:52;17.30;65.30
33863;DHT22;20158;51.436;-2.742;2023-11-21T12:56:21;17.30;65.30
33863;DHT22;20158;51.436;-2.742;2023-11-21T12:58:50;17.30;65.10
33863;DHT22;20158;51.436;-2.742;2023-11-21T13:01:20;17.30;65.10
33863;DHT22;20158;51.436;-2.742;2023-11-21T13:03:50;17.30;65.10
33863;DHT22;20158;51.436;-2.742;2023-11-21T13:06:17;17.30;65.10
33863;DHT22;20158;51.436;-2.742;2023-11-21T13:08:44;17.30;65.00
33863;DHT22;20158;51.436;-2.742;2023-11-21T13:11:11;17.30;65.00
33863;DHT22;20158;51.436;-2.742;2023-11-21T13:13:40;17.30;65.00
33863;DHT22;20158;51.436;-2.742;2023-11-21T13:16:07;17.30;65.00
33863;DHT22;20158;51.436;-2.742;2023-11-21T13:18:34;17.30;65.00
33863;DHT22;20158;51.436;-2.742;2023-11-21T13:21:05;17.30;64.90
33863;DHT22;20158;51.436;-2.742;2023-11-21T13:23:40;17.30;64.80
33863;DHT22;20158;51.436;-2.742;2023-11-21T13:26:11;17.30;64.80
33863;DHT22;20158;51.436;-2.742;2023-11-21T13:28:38;17.30;64.80
33863;DHT22;20158;51.436;-2.742;2023-11-21T13:31:07;17.30;64.90
33863;DHT22;20158;51.436;-2.742;2023-11-21T13:33:47;17.30;64.80
33863;DHT22;20158;51.436;-2.742;2023-11-21T13:36:25;17.20;64.60
33863;DHT22;20158;51.436;-2.742;2023-11-21T13:38:51;17.20;64.50
33863;DHT22;20158;51.436;-2.742;2023-11-21T13:41:21;17.10;64.30
33863;DHT22;20158;51.436;-2.742;2023-11-21T13:43:54;17.10;64.30
33863;DHT22;20158;51.436;-2.742;2023-11-21T13:46:29;17.00;64.10
33863;DHT22;20158;51.436;-2.742;2023-11-21T13:49:04;16.90;64.00
33863;DHT22;20158;51.436;-2.742;2023-11-21T13:51:36;16.80;64.30
33863;DHT22;20158;51.436;-2.742;2023-11-21T13:54:14;16.70;63.60
33863;DHT22;20158;51.436;-2.742;2023-11-21T13:56:41;16.70;63.80
33863;DHT22;20158;51.436;-2.742;2023-11-21T13:59:10;16.60;63.70
33863;DHT22;20158;51.436;-2.742;2023-11-21T14:01:52;16.50;63.60
33863;DHT22;20158;51.436;-2.742;2023-11-21T14:04:24;16.40;63.60
33863;DHT22;20158;51.436;-2.742;2023-11-21T14:07:03;16.30;63.50
33863;DHT22;20158;51.436;-2.742;2023-11-21T14:09:46;16.20;63.40
33863;DHT22;20158;51.436;-2.742;2023-11-21T14:12:15;16.10;63.40
33863;DHT22;20158;51.436;-2.742;2023-11-21T14:14:42;16.10;63.40
33863;DHT22;20158;51.436;-2.742;2023-11-21T14:17:10;16.00;63.30
33863;DHT22;20158;51.436;-2.742;2023-11-21T14:19:36;16.00;63.30
33863;DHT22;20158;51.436;-2.742;2023-11-21T14:22:06;15.90;63.20
33863;DHT22;20158;51.436;-2.742;2023-11-21T14:24:35;15.90;63.30
33863;DHT22;20158;51.436;-2.742;2023-11-21T14:27:02;15.90;63.40
33863;DHT22;20158;51.436;-2.742;2023-11-21T14:29:29;15.80;63.20
33863;DHT22;20158;51.436;-2.742;2023-11-21T14:31:55;15.80;63.30
33863;DHT22;20158;51.436;-2.742;2023-11-21T14:34:24;15.80;63.30
33863;DHT22;20158;51.436;-2.742;2023-11-21T14:36:50;15.80;63.40
33863;DHT22;20158;51.436;-2.742;2023-11-21T14:39:16;15.70;63.20
33863;DHT22;20158;51.436;-2.742;2023-11-21T14:41:49;15.70;63.20
33863;DHT22;20158;51.436;-2.742;2023-11-21T14:44:15;15.70;63.30
33863;DHT22;20158;51.436;-2.742;2023-11-21T14:46:45;15.70;63.40
33863;DHT22;20158;51.436;-2.742;2023-11-21T14:49:13;15.60;63.20
33863;DHT22;20158;51.436;-2.742;2023-11-21T14:51:52;15.60;63.20
33863;DHT22;20158;51.436;-2.742;2023-11-21T14:54:32;15.60;63.20
33863;DHT22;20158;51.436;-2.742;2023-11-21T14:57:13;15.50;63.10
33863;DHT22;20158;51.436;-2.742;2023-11-21T14:59:49;15.50;63.20
33863;DHT22;20158;51.436;-2.742;2023-11-21T15:02:19;15.40;63.10
33863;DHT22;20158;51.436;-2.742;2023-11-21T15:05:06;15.40;63.20
33863;DHT22;20158;51.436;-2.742;2023-11-21T15:07:34;15.40;63.20
33863;DHT22;20158;51.436;-2.742;2023-11-21T15:10:00;15.30;63.10
33863;DHT22;20158;51.436;-2.742;2023-11-21T15:12:26;15.30;63.10
33863;DHT22;20158;51.436;-2.742;2023-11-21T15:14:58;15.30;63.10
33863;DHT22;20158;51.436;-2.742;2023-11-21T15:17:25;15.20;63.00
33863;DHT22;20158;51.436;-2.742;2023-11-21T15:19:56;15.10;62.90
33863;DHT22;20158;51.436;-2.742;2023-11-21T15:22:23;15.10;63.20
33863;DHT22;20158;51.436;-2.742;2023-11-21T15:24:49;15.00;62.90
33863;DHT22;20158;51.436;-2.742;2023-11-21T15:27:16;14.90;62.80
33863;DHT22;20158;51.436;-2.742;2023-11-21T15:29:43;14.90;62.90
33863;DHT22;20158;51.436;-2.742;2023-11-21T15:32:10;14.80;62.80
33863;DHT22;20158;51.436;-2.742;2023-11-21T15:34:36;14.80;62.90
33863;DHT22;20158;51.436;-2.742;2023-11-21T15:37:04;14.80;62.90
33863;DHT22;20158;51.436;-2.742;2023-11-21T15:39:30;14.70;62.80